sensor_id;sensor_type;location;lat;lon;timestamp;P1;durP1;ratioP1;P2;durP2;ratioP2
16391;SDS011;8305;-33.882;151.134;2023-02-02T00:01:47;6.35;;;3.95;;
16391;SDS011;8305;-33.882;151.134;2023-02-02T00:04:22;5.15;;;3.70;;
16391;SDS011;8305;-33.882;151.134;2023-02-02T00:06:54;5.00;;;3.83;;
16391;SDS011;8305;-33.882;151.134;2023-02-02T00:09:25;6.53;;;4.30;;
16391;SDS011;8305;-33.882;151.134;2023-02-02T00:11:57;5.85;;;4.18;;
16391;SDS011;8305;-33.882;151.134;2023-02-02T00:14:29;7.72;;;4.35;;
16391;SDS011;8305;-33.882;151.134;2023-02-02T00:17:00;5.00;;;4.50;;
16391;SDS011;8305;-33.882;151.134;2023-02-02T00:19:33;8.18;;;4.35;;
16391;SDS011;8305;-33.882;151.134;2023-02-02T00:22:04;6.07;;;5.10;;
16391;SDS011;8305;-33.882;151.134;2023-02-02T00:24:35;4.88;;;4.20;;
16391;SDS011;8305;-33.882;151.134;2023-02-02T00:27:07;6.95;;;4.18;;
16391;SDS011;8305;-33.882;151.134;2023-02-02T00:29:38;5.18;;;4.15;;
16391;SDS011;8305;-33.882;151.134;2023-02-02T00:32:10;7.50;;;4.43;;
16391;SDS011;8305;-33.882;151.134;2023-02-02T00:34:42;5.68;;;4.30;;
16391;SDS011;8305;-33.882;151.134;2023-02-02T00:37:13;5.28;;;4.50;;
16391;SDS011;8305;-33.882;151.134;2023-02-02T00:39:44;6.47;;;4.22;;
16391;SDS011;8305;-33.882;151.134;2023-02-02T00:42:15;4.60;;;3.45;;
16391;SDS011;8305;-33.882;151.134;2023-02-02T00:44:46;4.20;;;3.55;;
16391;SDS011;8305;-33.882;151.134;2023-02-02T00:47:34;4.43;;;3.83;;
16391;SDS011;8305;-33.882;151.134;2023-02-02T00:50:07;7.32;;;3.53;;
16391;SDS011;8305;-33.882;151.134;2023-02-02T00:52:39;7.15;;;3.88;;
16391;SDS011;8305;-33.882;151.134;2023-02-02T00:55:11;4.53;;;3.47;;
16391;SDS011;8305;-33.882;151.134;2023-02-02T00:57:42;6.72;;;3.90;;
16391;SDS011;8305;-33.882;151.134;2023-02-02T01:00:15;5.20;;;3.50;;
16391;SDS011;8305;-33.882;151.134;2023-02-02T01:02:48;4.40;;;3.28;;
16391;SDS011;8305;-33.882;151.134;2023-02-02T01:05:22;5.00;;;3.60;;
16391;SDS011;8305;-33.882;151.134;2023-02-02T01:07:53;4.40;;;3.58;;
16391;SDS011;8305;-33.882;151.134;2023-02-02T01:10:24;6.05;;;3.55;;
16391;SDS011;8305;-33.882;151.134;2023-02-02T01:12:55;6.38;;;4.00;;
16391;SDS011;8305;-33.882;151.134;2023-02-02T01:15:26;4.45;;;3.70;;
16391;SDS011;8305;-33.882;151.134;2023-02-02T01:17:57;5.15;;;3.80;;
16391;SDS011;8305;-33.882;151.134;2023-02-02T01:20:30;4.32;;;3.28;;
16391;SDS011;8305;-33.882;151.134;2023-02-02T01:23:01;6.57;;;3.30;;
16391;SDS011;8305;-33.882;151.134;2023-02-02T01:25:32;6.25;;;2.95;;
16391;SDS011;8305;-33.882;151.134;2023-02-02T01:28:03;3.78;;;2.47;;
16391;SDS011;8305;-33.882;151.134;2023-02-02T01:30:35;6.10;;;3.55;;
16391;SDS011;8305;-33.882;151.134;2023-02-02T01:33:06;5.72;;;3.20;;
16391;SDS011;8305;-33.882;151.134;2023-02-02T01:35:43;5.13;;;2.90;;
16391;SDS011;8305;-33.882;151.134;2023-02-02T01:38:14;6.70;;;3.30;;
16391;SDS011;8305;-33.882;151.134;2023-02-02T01:40:46;7.40;;;3.03;;
16391;SDS011;8305;-33.882;151.134;2023-02-02T01:43:22;4.70;;;2.30;;
16391;SDS011;8305;-33.882;151.134;2023-02-02T01:45:54;8.27;;;2.50;;
16391;SDS011;8305;-33.882;151.134;2023-02-02T01:48:27;5.53;;;2.50;;
16391;SDS011;8305;-33.882;151.134;2023-02-02T01:51:03;8.25;;;3.10;;
16391;SDS011;8305;-33.882;151.134;2023-02-02T01:53:35;3.50;;;2.30;;
16391;SDS011;8305;-33.882;151.134;2023-02-02T01:56:08;4.47;;;2.40;;
16391;SDS011;8305;-33.882;151.134;2023-02-02T01:58:42;9.63;;;3.00;;
16391;SDS011;8305;-33.882;151.134;2023-02-02T02:01:14;8.90;;;2.53;;
16391;SDS011;8305;-33.882;151.134;2023-02-02T02:03:45;6.25;;;2.20;;
16391;SDS011;8305;-33.882;151.134;2023-02-02T02:06:19;7.57;;;2.45;;
16391;SDS011;8305;-33.882;151.134;2023-02-02T02:08:51;7.40;;;2.20;;
16391;SDS011;8305;-33.882;151.134;2023-02-02T02:11:28;4.90;;;1.98;;
16391;SDS011;8305;-33.882;151.134;2023-02-02T02:14:00;6.53;;;2.30;;
16391;SDS011;8305;-33.882;151.134;2023-02-02T02:16:59;4.82;;;2.17;;
16391;SDS011;8305;-33.882;151.134;2023-02-02T02:20:01;7.40;;;2.40;;
16391;SDS011;8305;-33.882;151.134;2023-02-02T02:23:31;4.90;;;2.10;;
16391;SDS011;8305;-33.882;151.134;2023-02-02T02:26:50;6.53;;;2.47;;
16391;SDS011;8305;-33.882;151.134;2023-02-02T02:29:57;4.80;;;2.30;;
16391;SDS011;8305;-33.882;151.134;2023-02-02T02:32:51;5.15;;;2.22;;
16391;SDS011;8305;-33.882;151.134;2023-02-02T02:35:31;4.85;;;2.50;;
16391;SDS011;8305;-33.882;151.134;2023-02-02T02:38:08;3.97;;;2.00;;
16391;SDS011;8305;-33.882;151.134;2023-02-02T02:40:44;5.53;;;2.25;;
16391;SDS011;8305;-33.882;151.134;2023-02-02T02:43:19;5.97;;;2.10;;
16391;SDS011;8305;-33.882;151.134;2023-02-02T02:45:55;7.53;;;2.53;;
16391;SDS011;8305;-33.882;151.134;2023-02-02T02:48:28;5.72;;;2.08;;
16391;SDS011;8305;-33.882;151.134;2023-02-02T02:54:09;8.18;;;2.33;;
16391;SDS011;8305;-33.882;151.134;2023-02-02T02:56:46;5.93;;;2.33;;
16391;SDS011;8305;-33.882;151.134;2023-02-02T02:59:25;6.45;;;2.13;;
16391;SDS011;8305;-33.882;151.134;2023-02-02T03:02:12;7.20;;;2.13;;
16391;SDS011;8305;-33.882;151.134;2023-02-02T03:04:58;7.53;;;2.17;;
16391;SDS011;8305;-33.882;151.134;2023-02-02T03:07:37;6.22;;;2.15;;
16391;SDS011;8305;-33.882;151.134;2023-02-02T03:10:12;4.55;;;2.33;;
16391;SDS011;8305;-33.882;151.134;2023-02-02T03:12:47;5.28;;;2.40;;
16391;SDS011;8305;-33.882;151.134;2023-02-02T03:15:18;5.25;;;2.33;;
16391;SDS011;8305;-33.882;151.134;2023-02-02T03:17:49;6.07;;;2.08;;
16391;SDS011;8305;-33.882;151.134;2023-02-02T03:20:23;6.18;;;2.25;;
16391;SDS011;8305;-33.882;151.134;2023-02-02T03:22:54;5.13;;;2.22;;
16391;SDS011;8305;-33.882;151.134;2023-02-02T03:25:25;8.68;;;2.30;;
16391;SDS011;8305;-33.882;151.134;2023-02-02T03:27:56;8.38;;;2.25;;
16391;SDS011;8305;-33.882;151.134;2023-02-02T03:30:28;5.07;;;2.30;;
16391;SDS011;8305;-33.882;151.134;2023-02-02T03:33:00;5.95;;;2.30;;
16391;SDS011;8305;-33.882;151.134;2023-02-02T03:35:32;6.00;;;2.65;;
16391;SDS011;8305;-33.882;151.134;2023-02-02T03:38:03;6.57;;;2.53;;
16391;SDS011;8305;-33.882;151.134;2023-02-02T03:40:34;7.20;;;2.40;;
16391;SDS011;8305;-33.882;151.134;2023-02-02T03:43:05;7.10;;;2.50;;
16391;SDS011;8305;-33.882;151.134;2023-02-02T03:45:36;6.03;;;2.40;;
16391;SDS011;8305;-33.882;151.134;2023-02-02T03:48:08;7.72;;;3.10;;
16391;SDS011;8305;-33.882;151.134;2023-02-02T03:50:40;5.75;;;2.60;;
16391;SDS011;8305;-33.882;151.134;2023-02-02T03:53:11;6.28;;;2.40;;
16391;SDS011;8305;-33.882;151.134;2023-02-02T03:55:42;7.25;;;2.60;;
16391;SDS011;8305;-33.882;151.134;2023-02-02T03:58:13;4.50;;;2.42;;
16391;SDS011;8305;-33.882;151.134;2023-02-02T04:00:47;7.47;;;2.90;;
16391;SDS011;8305;-33.882;151.134;2023-02-02T04:03:18;4.13;;;2.22;;
16391;SDS011;8305;-33.882;151.134;2023-02-02T04:09:33;6.65;;;2.50;;
16391;SDS011;8305;-33.882;151.134;2023-02-02T04:12:04;4.35;;;2.30;;
16391;SDS011;8305;-33.882;151.134;2023-02-02T04:14:35;6.28;;;2.58;;
16391;SDS011;8305;-33.882;151.134;2023-02-02T04:17:06;5.32;;;2.50;;
16391;SDS011;8305;-33.882;151.134;2023-02-02T04:19:37;5.03;;;2.00;;
16391;SDS011;8305;-33.882;151.134;2023-02-02T04:22:08;6.53;;;2.47;;
16391;SDS011;8305;-33.882;151.134;2023-02-02T04:24:40;5.32;;;2.13;;
16391;SDS011;8305;-33.882;151.134;2023-02-02T04:27:11;5.97;;;2.30;;
16391;SDS011;8305;-33.882;151.134;2023-02-02T04:29:42;6.32;;;2.30;;
16391;SDS011;8305;-33.882;151.134;2023-02-02T04:32:13;5.20;;;2.15;;
16391;SDS011;8305;-33.882;151.134;2023-02-02T04:34:45;7.30;;;2.42;;
16391;SDS011;8305;-33.882;151.134;2023-02-02T04:37:15;6.75;;;2.30;;
16391;SDS011;8305;-33.882;151.134;2023-02-02T04:39:49;6.70;;;2.20;;
16391;SDS011;8305;-33.882;151.134;2023-02-02T04:42:20;6.70;;;2.60;;
16391;SDS011;8305;-33.882;151.134;2023-02-02T04:44:51;6.22;;;2.47;;
16391;SDS011;8305;-33.882;151.134;2023-02-02T04:47:22;5.63;;;2.10;;
16391;SDS011;8305;-33.882;151.134;2023-02-02T04:49:56;6.20;;;2.30;;
16391;SDS011;8305;-33.882;151.134;2023-02-02T04:52:28;7.88;;;2.58;;
16391;SDS011;8305;-33.882;151.134;2023-02-02T04:55:00;6.82;;;2.70;;
16391;SDS011;8305;-33.882;151.134;2023-02-02T04:57:31;4.53;;;2.20;;
16391;SDS011;8305;-33.882;151.134;2023-02-02T05:00:02;6.55;;;2.00;;
16391;SDS011;8305;-33.882;151.134;2023-02-02T05:02:34;5.35;;;2.30;;
16391;SDS011;8305;-33.882;151.134;2023-02-02T05:05:06;7.93;;;2.50;;
16391;SDS011;8305;-33.882;151.134;2023-02-02T05:07:40;5.25;;;2.17;;
16391;SDS011;8305;-33.882;151.134;2023-02-02T05:10:13;5.43;;;2.58;;
16391;SDS011;8305;-33.882;151.134;2023-02-02T05:12:44;8.85;;;2.20;;
16391;SDS011;8305;-33.882;151.134;2023-02-02T05:15:15;6.32;;;2.60;;
16391;SDS011;8305;-33.882;151.134;2023-02-02T05:17:46;7.63;;;2.42;;
16391;SDS011;8305;-33.882;151.134;2023-02-02T05:20:17;6.43;;;2.20;;
16391;SDS011;8305;-33.882;151.134;2023-02-02T05:22:48;4.47;;;2.20;;
16391;SDS011;8305;-33.882;151.134;2023-02-02T05:25:21;6.93;;;2.13;;
16391;SDS011;8305;-33.882;151.134;2023-02-02T05:27:52;6.40;;;2.30;;
16391;SDS011;8305;-33.882;151.134;2023-02-02T05:30:23;5.30;;;2.35;;
16391;SDS011;8305;-33.882;151.134;2023-02-02T05:32:54;5.18;;;2.28;;
16391;SDS011;8305;-33.882;151.134;2023-02-02T05:35:25;5.60;;;2.05;;
16391;SDS011;8305;-33.882;151.134;2023-02-02T05:37:59;8.57;;;2.63;;
16391;SDS011;8305;-33.882;151.134;2023-02-02T05:40:32;8.15;;;2.25;;
16391;SDS011;8305;-33.882;151.134;2023-02-02T05:43:03;7.50;;;2.30;;
16391;SDS011;8305;-33.882;151.134;2023-02-02T05:45:34;5.50;;;2.40;;
16391;SDS011;8305;-33.882;151.134;2023-02-02T05:48:05;8.57;;;2.50;;
16391;SDS011;8305;-33.882;151.134;2023-02-02T05:50:37;13.60;;;2.92;;
16391;SDS011;8305;-33.882;151.134;2023-02-02T05:53:09;4.53;;;2.35;;
16391;SDS011;8305;-33.882;151.134;2023-02-02T05:55:43;5.63;;;2.30;;
16391;SDS011;8305;-33.882;151.134;2023-02-02T05:58:14;6.10;;;2.22;;
16391;SDS011;8305;-33.882;151.134;2023-02-02T06:00:45;6.78;;;2.20;;
16391;SDS011;8305;-33.882;151.134;2023-02-02T06:03:16;4.88;;;2.25;;
16391;SDS011;8305;-33.882;151.134;2023-02-02T06:05:47;6.47;;;2.35;;
16391;SDS011;8305;-33.882;151.134;2023-02-02T06:08:18;7.40;;;2.55;;
16391;SDS011;8305;-33.882;151.134;2023-02-02T06:10:51;4.65;;;2.45;;
16391;SDS011;8305;-33.882;151.134;2023-02-02T06:13:22;5.97;;;2.13;;
16391;SDS011;8305;-33.882;151.134;2023-02-02T06:15:52;6.68;;;2.33;;
16391;SDS011;8305;-33.882;151.134;2023-02-02T06:18:24;6.55;;;2.72;;
16391;SDS011;8305;-33.882;151.134;2023-02-02T06:20:55;9.68;;;2.58;;
16391;SDS011;8305;-33.882;151.134;2023-02-02T06:23:27;9.45;;;2.60;;
16391;SDS011;8305;-33.882;151.134;2023-02-02T06:26:00;6.53;;;2.75;;
16391;SDS011;8305;-33.882;151.134;2023-02-02T06:28:33;9.30;;;2.60;;
16391;SDS011;8305;-33.882;151.134;2023-02-02T06:31:05;4.97;;;2.83;;
16391;SDS011;8305;-33.882;151.134;2023-02-02T06:33:37;6.13;;;2.10;;
16391;SDS011;8305;-33.882;151.134;2023-02-02T06:36:08;5.53;;;2.30;;
16391;SDS011;8305;-33.882;151.134;2023-02-02T06:38:39;7.18;;;2.80;;
16391;SDS011;8305;-33.882;151.134;2023-02-02T06:41:12;7.38;;;2.50;;
16391;SDS011;8305;-33.882;151.134;2023-02-02T06:43:43;7.20;;;2.47;;
16391;SDS011;8305;-33.882;151.134;2023-02-02T06:46:14;5.22;;;2.08;;
16391;SDS011;8305;-33.882;151.134;2023-02-02T06:48:45;6.97;;;2.47;;
16391;SDS011;8305;-33.882;151.134;2023-02-02T06:51:16;5.10;;;2.33;;
16391;SDS011;8305;-33.882;151.134;2023-02-02T06:53:47;6.63;;;2.20;;
16391;SDS011;8305;-33.882;151.134;2023-02-02T06:56:23;5.22;;;2.25;;
16391;SDS011;8305;-33.882;151.134;2023-02-02T06:58:54;4.70;;;2.03;;
16391;SDS011;8305;-33.882;151.134;2023-02-02T07:01:26;5.60;;;2.10;;
16391;SDS011;8305;-33.882;151.134;2023-02-02T07:03:56;9.82;;;2.97;;
16391;SDS011;8305;-33.882;151.134;2023-02-02T07:06:28;4.45;;;2.38;;
16391;SDS011;8305;-33.882;151.134;2023-02-02T07:08:59;8.35;;;2.90;;
16391;SDS011;8305;-33.882;151.134;2023-02-02T07:11:32;9.70;;;2.90;;
16391;SDS011;8305;-33.882;151.134;2023-02-02T07:14:03;7.20;;;2.72;;
16391;SDS011;8305;-33.882;151.134;2023-02-02T07:16:34;7.55;;;2.28;;
16391;SDS011;8305;-33.882;151.134;2023-02-02T07:19:05;5.88;;;2.17;;
16391;SDS011;8305;-33.882;151.134;2023-02-02T07:21:36;7.40;;;2.20;;
16391;SDS011;8305;-33.882;151.134;2023-02-02T07:24:07;6.60;;;2.50;;
16391;SDS011;8305;-33.882;151.134;2023-02-02T07:26:40;7.60;;;2.22;;
16391;SDS011;8305;-33.882;151.134;2023-02-02T07:29:11;7.93;;;2.45;;
16391;SDS011;8305;-33.882;151.134;2023-02-02T07:31:42;5.00;;;1.92;;
16391;SDS011;8305;-33.882;151.134;2023-02-02T07:34:13;7.10;;;2.55;;
16391;SDS011;8305;-33.882;151.134;2023-02-02T07:36:44;4.25;;;2.10;;
16391;SDS011;8305;-33.882;151.134;2023-02-02T07:39:15;7.43;;;2.17;;
16391;SDS011;8305;-33.882;151.134;2023-02-02T07:41:48;5.80;;;2.50;;
16391;SDS011;8305;-33.882;151.134;2023-02-02T07:44:19;7.57;;;2.53;;
16391;SDS011;8305;-33.882;151.134;2023-02-02T07:46:50;6.22;;;2.40;;
16391;SDS011;8305;-33.882;151.134;2023-02-02T07:49:21;8.07;;;2.40;;
16391;SDS011;8305;-33.882;151.134;2023-02-02T07:51:52;5.80;;;1.90;;
16391;SDS011;8305;-33.882;151.134;2023-02-02T07:54:23;8.38;;;2.33;;
16391;SDS011;8305;-33.882;151.134;2023-02-02T07:56:56;7.88;;;2.72;;
16391;SDS011;8305;-33.882;151.134;2023-02-02T07:59:28;5.43;;;2.10;;
16391;SDS011;8305;-33.882;151.134;2023-02-02T08:01:59;6.88;;;2.28;;
16391;SDS011;8305;-33.882;151.134;2023-02-02T08:04:30;8.30;;;2.17;;
16391;SDS011;8305;-33.882;151.134;2023-02-02T08:07:01;9.00;;;2.40;;
16391;SDS011;8305;-33.882;151.134;2023-02-02T08:09:31;9.35;;;2.53;;
16391;SDS011;8305;-33.882;151.134;2023-02-02T08:12:05;8.07;;;2.70;;
16391;SDS011;8305;-33.882;151.134;2023-02-02T08:14:36;10.25;;;2.45;;
16391;SDS011;8305;-33.882;151.134;2023-02-02T08:17:07;8.32;;;2.63;;
16391;SDS011;8305;-33.882;151.134;2023-02-02T08:19:38;6.47;;;2.50;;
16391;SDS011;8305;-33.882;151.134;2023-02-02T08:22:09;10.55;;;2.70;;
16391;SDS011;8305;-33.882;151.134;2023-02-02T08:24:40;10.20;;;2.85;;
16391;SDS011;8305;-33.882;151.134;2023-02-02T08:27:14;11.43;;;2.60;;
16391;SDS011;8305;-33.882;151.134;2023-02-02T08:29:45;5.95;;;2.30;;
16391;SDS011;8305;-33.882;151.134;2023-02-02T08:32:16;7.00;;;2.95;;
16391;SDS011;8305;-33.882;151.134;2023-02-02T08:34:47;8.75;;;2.67;;
16391;SDS011;8305;-33.882;151.134;2023-02-02T08:37:19;8.75;;;2.30;;
16391;SDS011;8305;-33.882;151.134;2023-02-02T08:39:50;7.25;;;2.60;;
16391;SDS011;8305;-33.882;151.134;2023-02-02T08:42:26;9.70;;;2.90;;
16391;SDS011;8305;-33.882;151.134;2023-02-02T08:44:57;11.63;;;2.88;;
16391;SDS011;8305;-33.882;151.134;2023-02-02T08:47:29;6.57;;;2.53;;
16391;SDS011;8305;-33.882;151.134;2023-02-02T08:50:00;9.63;;;2.85;;
16391;SDS011;8305;-33.882;151.134;2023-02-02T08:52:31;10.43;;;2.85;;
16391;SDS011;8305;-33.882;151.134;2023-02-02T08:55:02;9.50;;;2.53;;
16391;SDS011;8305;-33.882;151.134;2023-02-02T08:57:36;8.80;;;2.60;;
16391;SDS011;8305;-33.882;151.134;2023-02-02T09:00:07;7.90;;;3.00;;
16391;SDS011;8305;-33.882;151.134;2023-02-02T09:02:39;15.93;;;2.80;;
16391;SDS011;8305;-33.882;151.134;2023-02-02T09:05:10;9.45;;;2.70;;
16391;SDS011;8305;-33.882;151.134;2023-02-02T09:07:41;11.20;;;3.10;;
16391;SDS011;8305;-33.882;151.134;2023-02-02T09:10:12;9.55;;;3.10;;
16391;SDS011;8305;-33.882;151.134;2023-02-02T09:12:45;10.50;;;3.13;;
16391;SDS011;8305;-33.882;151.134;2023-02-02T09:15:15;7.38;;;2.70;;
16391;SDS011;8305;-33.882;151.134;2023-02-02T09:17:46;10.35;;;2.95;;
16391;SDS011;8305;-33.882;151.134;2023-02-02T09:20:17;12.98;;;3.35;;
16391;SDS011;8305;-33.882;151.134;2023-02-02T09:22:48;13.90;;;3.10;;
16391;SDS011;8305;-33.882;151.134;2023-02-02T09:25:19;9.63;;;3.13;;
16391;SDS011;8305;-33.882;151.134;2023-02-02T09:27:52;8.70;;;3.17;;
16391;SDS011;8305;-33.882;151.134;2023-02-02T09:30:23;10.35;;;2.70;;
16391;SDS011;8305;-33.882;151.134;2023-02-02T09:32:54;9.43;;;2.78;;
16391;SDS011;8305;-33.882;151.134;2023-02-02T09:35:25;9.35;;;3.08;;
16391;SDS011;8305;-33.882;151.134;2023-02-02T09:37:56;9.43;;;2.90;;
16391;SDS011;8305;-33.882;151.134;2023-02-02T09:40:27;11.05;;;3.35;;
16391;SDS011;8305;-33.882;151.134;2023-02-02T09:43:07;7.15;;;3.05;;
16391;SDS011;8305;-33.882;151.134;2023-02-02T09:45:56;11.55;;;2.83;;
16391;SDS011;8305;-33.882;151.134;2023-02-02T09:48:35;8.60;;;3.03;;
16391;SDS011;8305;-33.882;151.134;2023-02-02T09:51:14;9.27;;;2.92;;
16391;SDS011;8305;-33.882;151.134;2023-02-02T09:53:50;8.30;;;2.88;;
16391;SDS011;8305;-33.882;151.134;2023-02-02T09:56:25;9.00;;;2.70;;
16391;SDS011;8305;-33.882;151.134;2023-02-02T09:59:02;11.30;;;3.00;;
16391;SDS011;8305;-33.882;151.134;2023-02-02T10:01:40;7.40;;;2.92;;
16391;SDS011;8305;-33.882;151.134;2023-02-02T10:04:15;6.88;;;2.70;;
16391;SDS011;8305;-33.882;151.134;2023-02-02T10:06:51;8.70;;;2.35;;
16391;SDS011;8305;-33.882;151.134;2023-02-02T10:09:29;10.35;;;2.97;;
16391;SDS011;8305;-33.882;151.134;2023-02-02T10:12:05;7.47;;;2.55;;
16391;SDS011;8305;-33.882;151.134;2023-02-02T10:14:48;9.93;;;2.95;;
16391;SDS011;8305;-33.882;151.134;2023-02-02T10:20:17;8.55;;;3.17;;
16391;SDS011;8305;-33.882;151.134;2023-02-02T10:23:08;9.40;;;2.83;;
16391;SDS011;8305;-33.882;151.134;2023-02-02T10:25:53;8.82;;;3.03;;
16391;SDS011;8305;-33.882;151.134;2023-02-02T10:28:29;8.82;;;2.65;;
16391;SDS011;8305;-33.882;151.134;2023-02-02T10:31:17;8.88;;;2.97;;
16391;SDS011;8305;-33.882;151.134;2023-02-02T10:34:02;10.55;;;2.88;;
16391;SDS011;8305;-33.882;151.134;2023-02-02T10:36:49;9.77;;;3.03;;
16391;SDS011;8305;-33.882;151.134;2023-02-02T10:39:36;12.60;;;3.53;;
16391;SDS011;8305;-33.882;151.134;2023-02-02T10:42:18;9.52;;;3.28;;
16391;SDS011;8305;-33.882;151.134;2023-02-02T10:45:00;10.70;;;3.40;;
16391;SDS011;8305;-33.882;151.134;2023-02-02T10:47:38;10.65;;;2.95;;
16391;SDS011;8305;-33.882;151.134;2023-02-02T10:50:16;8.52;;;2.80;;
16391;SDS011;8305;-33.882;151.134;2023-02-02T10:52:48;8.75;;;3.03;;
16391;SDS011;8305;-33.882;151.134;2023-02-02T10:55:26;10.75;;;3.25;;
16391;SDS011;8305;-33.882;151.134;2023-02-02T10:58:07;8.27;;;2.65;;
16391;SDS011;8305;-33.882;151.134;2023-02-02T11:00:49;9.70;;;3.30;;
16391;SDS011;8305;-33.882;151.134;2023-02-02T11:03:24;12.15;;;3.65;;
16391;SDS011;8305;-33.882;151.134;2023-02-02T11:05:57;6.53;;;2.80;;
16391;SDS011;8305;-33.882;151.134;2023-02-02T11:09:00;9.57;;;2.60;;
16391;SDS011;8305;-33.882;151.134;2023-02-02T11:11:31;6.32;;;2.33;;
16391;SDS011;8305;-33.882;151.134;2023-02-02T11:14:10;7.55;;;2.60;;
16391;SDS011;8305;-33.882;151.134;2023-02-02T11:16:45;8.68;;;2.90;;
16391;SDS011;8305;-33.882;151.134;2023-02-02T11:19:32;4.35;;;2.30;;
16391;SDS011;8305;-33.882;151.134;2023-02-02T11:22:04;6.70;;;2.90;;
16391;SDS011;8305;-33.882;151.134;2023-02-02T11:24:51;8.60;;;2.83;;
16391;SDS011;8305;-33.882;151.134;2023-02-02T11:27:22;5.65;;;2.78;;
16391;SDS011;8305;-33.882;151.134;2023-02-02T11:29:56;6.32;;;2.88;;
16391;SDS011;8305;-33.882;151.134;2023-02-02T11:32:29;8.93;;;2.78;;
16391;SDS011;8305;-33.882;151.134;2023-02-02T11:35:12;6.60;;;2.67;;
16391;SDS011;8305;-33.882;151.134;2023-02-02T11:37:51;8.15;;;3.00;;
16391;SDS011;8305;-33.882;151.134;2023-02-02T11:40:28;9.45;;;2.97;;
16391;SDS011;8305;-33.882;151.134;2023-02-02T11:43:01;11.32;;;3.10;;
16391;SDS011;8305;-33.882;151.134;2023-02-02T11:45:34;7.47;;;2.78;;
16391;SDS011;8305;-33.882;151.134;2023-02-02T11:48:10;7.47;;;2.55;;
16391;SDS011;8305;-33.882;151.134;2023-02-02T11:50:46;8.77;;;3.38;;
16391;SDS011;8305;-33.882;151.134;2023-02-02T11:53:22;8.20;;;2.63;;
16391;SDS011;8305;-33.882;151.134;2023-02-02T11:55:55;8.75;;;2.60;;
16391;SDS011;8305;-33.882;151.134;2023-02-02T11:58:29;7.82;;;2.70;;
16391;SDS011;8305;-33.882;151.134;2023-02-02T12:01:25;6.38;;;2.60;;
16391;SDS011;8305;-33.882;151.134;2023-02-02T12:03:57;6.72;;;2.58;;
16391;SDS011;8305;-33.882;151.134;2023-02-02T12:13:38;5.45;;;2.42;;
16391;SDS011;8305;-33.882;151.134;2023-02-02T12:16:49;7.78;;;2.85;;
16391;SDS011;8305;-33.882;151.134;2023-02-02T12:19:51;7.18;;;3.15;;
16391;SDS011;8305;-33.882;151.134;2023-02-02T12:25:59;9.15;;;3.10;;
16391;SDS011;8305;-33.882;151.134;2023-02-02T12:28:50;5.68;;;2.60;;
16391;SDS011;8305;-33.882;151.134;2023-02-02T12:31:39;5.82;;;2.33;;
16391;SDS011;8305;-33.882;151.134;2023-02-02T12:34:19;8.65;;;2.78;;
16391;SDS011;8305;-33.882;151.134;2023-02-02T12:36:59;7.10;;;2.65;;
16391;SDS011;8305;-33.882;151.134;2023-02-02T12:39:38;6.15;;;2.55;;
16391;SDS011;8305;-33.882;151.134;2023-02-02T12:45:30;7.68;;;2.88;;
16391;SDS011;8305;-33.882;151.134;2023-02-02T12:48:14;5.70;;;2.45;;
16391;SDS011;8305;-33.882;151.134;2023-02-02T12:50:53;10.07;;;2.67;;
16391;SDS011;8305;-33.882;151.134;2023-02-02T12:53:50;7.28;;;2.60;;
16391;SDS011;8305;-33.882;151.134;2023-02-02T12:56:46;4.97;;;2.55;;
16391;SDS011;8305;-33.882;151.134;2023-02-02T12:59:31;6.55;;;2.53;;
16391;SDS011;8305;-33.882;151.134;2023-02-02T13:02:24;5.00;;;2.47;;
16391;SDS011;8305;-33.882;151.134;2023-02-02T13:05:04;5.25;;;2.25;;
16391;SDS011;8305;-33.882;151.134;2023-02-02T13:07:50;6.22;;;2.40;;
16391;SDS011;8305;-33.882;151.134;2023-02-02T13:10:23;6.47;;;2.40;;
16391;SDS011;8305;-33.882;151.134;2023-02-02T13:12:59;6.22;;;2.65;;
16391;SDS011;8305;-33.882;151.134;2023-02-02T13:15:36;5.63;;;2.70;;
16391;SDS011;8305;-33.882;151.134;2023-02-02T13:18:10;4.95;;;2.78;;
16391;SDS011;8305;-33.882;151.134;2023-02-02T13:20:47;4.00;;;2.10;;
16391;SDS011;8305;-33.882;151.134;2023-02-02T13:23:22;4.80;;;2.20;;
16391;SDS011;8305;-33.882;151.134;2023-02-02T13:25:56;4.43;;;2.13;;
16391;SDS011;8305;-33.882;151.134;2023-02-02T13:28:35;7.93;;;2.50;;
16391;SDS011;8305;-33.882;151.134;2023-02-02T13:31:13;4.43;;;2.20;;
16391;SDS011;8305;-33.882;151.134;2023-02-02T13:33:52;7.05;;;2.30;;
16391;SDS011;8305;-33.882;151.134;2023-02-02T13:36:28;4.40;;;2.25;;
16391;SDS011;8305;-33.882;151.134;2023-02-02T13:39:08;5.57;;;2.42;;
16391;SDS011;8305;-33.882;151.134;2023-02-02T13:41:44;6.03;;;2.40;;
16391;SDS011;8305;-33.882;151.134;2023-02-02T13:44:16;4.82;;;2.40;;
16391;SDS011;8305;-33.882;151.134;2023-02-02T13:46:55;6.25;;;1.88;;
16391;SDS011;8305;-33.882;151.134;2023-02-02T13:49:30;6.75;;;2.60;;
16391;SDS011;8305;-33.882;151.134;2023-02-02T13:52:08;6.88;;;2.10;;
16391;SDS011;8305;-33.882;151.134;2023-02-02T14:01:03;5.85;;;2.30;;
16391;SDS011;8305;-33.882;151.134;2023-02-02T14:03:39;6.80;;;2.20;;
16391;SDS011;8305;-33.882;151.134;2023-02-02T14:06:12;3.53;;;2.10;;
16391;SDS011;8305;-33.882;151.134;2023-02-02T14:08:45;3.90;;;2.20;;
16391;SDS011;8305;-33.882;151.134;2023-02-02T14:11:20;2.88;;;1.80;;
16391;SDS011;8305;-33.882;151.134;2023-02-02T14:13:54;4.40;;;1.95;;
16391;SDS011;8305;-33.882;151.134;2023-02-02T14:16:45;2.83;;;1.58;;
16391;SDS011;8305;-33.882;151.134;2023-02-02T14:19:45;2.92;;;1.50;;
16391;SDS011;8305;-33.882;151.134;2023-02-02T14:28:40;2.13;;;1.20;;
16391;SDS011;8305;-33.882;151.134;2023-02-02T14:31:27;4.53;;;1.20;;
16391;SDS011;8305;-33.882;151.134;2023-02-02T14:37:28;3.53;;;1.17;;
16391;SDS011;8305;-33.882;151.134;2023-02-02T14:40:27;2.22;;;1.20;;
16391;SDS011;8305;-33.882;151.134;2023-02-02T14:43:10;2.67;;;1.20;;
16391;SDS011;8305;-33.882;151.134;2023-02-02T14:46:18;2.58;;;1.10;;
16391;SDS011;8305;-33.882;151.134;2023-02-02T14:49:08;1.52;;;0.98;;
16391;SDS011;8305;-33.882;151.134;2023-02-02T14:51:48;1.58;;;0.90;;
16391;SDS011;8305;-33.882;151.134;2023-02-02T14:54:24;2.15;;;0.88;;
16391;SDS011;8305;-33.882;151.134;2023-02-02T14:56:59;2.33;;;1.00;;
16391;SDS011;8305;-33.882;151.134;2023-02-02T14:59:32;2.65;;;0.93;;
16391;SDS011;8305;-33.882;151.134;2023-02-02T15:02:16;1.65;;;1.00;;
16391;SDS011;8305;-33.882;151.134;2023-02-02T15:04:51;1.25;;;0.80;;
16391;SDS011;8305;-33.882;151.134;2023-02-02T15:07:53;2.15;;;0.90;;
16391;SDS011;8305;-33.882;151.134;2023-02-02T15:13:27;2.15;;;0.93;;
16391;SDS011;8305;-33.882;151.134;2023-02-02T15:16:05;2.70;;;1.10;;
16391;SDS011;8305;-33.882;151.134;2023-02-02T15:18:43;1.27;;;0.77;;
16391;SDS011;8305;-33.882;151.134;2023-02-02T15:21:17;2.00;;;0.80;;
16391;SDS011;8305;-33.882;151.134;2023-02-02T15:23:52;1.65;;;0.80;;
16391;SDS011;8305;-33.882;151.134;2023-02-02T15:26:26;2.25;;;0.50;;
16391;SDS011;8305;-33.882;151.134;2023-02-02T15:29:01;2.35;;;0.75;;
16391;SDS011;8305;-33.882;151.134;2023-02-02T15:31:36;2.05;;;0.80;;
16391;SDS011;8305;-33.882;151.134;2023-02-02T15:34:13;1.98;;;0.60;;
16391;SDS011;8305;-33.882;151.134;2023-02-02T15:36:48;1.00;;;0.55;;
16391;SDS011;8305;-33.882;151.134;2023-02-02T15:39:27;0.93;;;0.50;;
16391;SDS011;8305;-33.882;151.134;2023-02-02T15:42:01;2.55;;;0.50;;
16391;SDS011;8305;-33.882;151.134;2023-02-02T15:44:50;1.58;;;0.57;;
16391;SDS011;8305;-33.882;151.134;2023-02-02T15:47:22;0.55;;;0.40;;
16391;SDS011;8305;-33.882;151.134;2023-02-02T15:49:58;1.92;;;0.60;;
16391;SDS011;8305;-33.882;151.134;2023-02-02T15:52:30;1.38;;;0.40;;